METAR Data
IDs: Format: Raw Decoded Include TAF

Data at: 2120 UTC 18 Apr 2021

KTPF 182115Z AUTO 22013G16KT 10SM CLR 28/23 A2986 RMK AO2
KTPF 182055Z AUTO 22012KT 10SM CLR 28/23 A2985 RMK AO2
KTPF 182035Z AUTO 22013KT 10SM CLR 28/23 A2985 RMK AO2
KTPF 182015Z AUTO 22011KT 10SM CLR 28/23 A2986 RMK AO2
KTPF 181955Z AUTO 22013KT 10SM CLR 28/22 A2988 RMK AO2
KTPF 181935Z AUTO 22013G17KT 10SM CLR 29/23 A2988 RMK AO2
KTPF 181915Z AUTO 22013G17KT 10SM CLR 29/23 A2988 RMK AO2
KTPF 181855Z AUTO 22011G17KT 10SM CLR 29/23 A2989 RMK AO2
KTPF 181835Z AUTO 22015G19KT 10SM SCT100 30/23 A2990 RMK AO2
KTPF 181815Z AUTO 22014G19KT 10SM SCT044 SCT065 BKN110 30/23 A2990 RMK AO2
KTPF 181755Z AUTO 22013G18KT 10SM SCT048 SCT110 30/23 A2990 RMK AO2
KTPF 181735Z AUTO 22014G18KT 10SM SCT048 SCT120 30/23 A2991 RMK AO2
KTPF 181715Z AUTO 22012KT 10SM SCT110 30/23 A2991 RMK AO2
KTPF 181655Z AUTO 22013G16KT 10SM SCT016 29/23 A2991 RMK AO2
KTPF 181635Z AUTO 22013G19KT 10SM SCT016 28/23 A2992 RMK AO2
KTPF 181615Z AUTO 22013KT 10SM SCT016 28/23 A2993 RMK AO2
KTPF 181555Z AUTO 22015KT 10SM BKN014 28/23 A2994 RMK AO2
KTPF 181535Z AUTO 22012G17KT 10SM BKN014 28/24 A2994 RMK AO2
KTPF 181515Z AUTO 22015G19KT 10SM BKN014 BKN100 28/24 A2994 RMK AO2
KTPF 181455Z AUTO 22014G19KT 10SM BKN012 OVC017 27/23 A2995 RMK AO2
KTPF 181435Z AUTO 22014G18KT 10SM BKN013 BKN017 27/24 A2994 RMK AO2
KTPF 181415Z AUTO 23012KT 10SM BKN011 BKN017 26/23 A2994 RMK AO2
KTPF 181355Z AUTO 22012G16KT 10SM BKN011 BKN017 BKN090 27/23 A2994 RMK AO2
KTPF 181335Z AUTO 22011KT 10SM BKN011 BKN090 BKN110 27/24 A2994 RMK AO2
KTPF 181315Z AUTO 20009KT 10SM BKN011 BKN018 OVC100 26/24 A2994 RMK AO2
KTPF 181255Z AUTO 20007KT 7SM BKN009 BKN012 OVC018 25/24 A2993 RMK AO2
KTPF 181235Z AUTO 20007KT 7SM OVC007 25/24 A2993 RMK AO2
KTPF 181215Z AUTO 21007KT 10SM OVC009 25/23 A2993 RMK AO2
KTPF 181155Z AUTO 23007KT 10SM BKN009 BKN013 OVC110 25/23 A2993 RMK AO2
KTPF 181135Z AUTO 21007KT 10SM BKN009 OVC013 25/23 A2992 RMK AO2
KTPF 181115Z AUTO 22008KT 10SM SCT009 OVC013 25/23 A2992 RMK AO2
KTPF 181055Z AUTO 23006KT 10SM BKN007 OVC013 25/23 A2992 RMK AO2
KTPF 181035Z AUTO 22007KT 10SM BKN007 BKN013 OVC035 25/23 A2991 RMK AO2
KTPF 181015Z AUTO 22009KT 10SM OVC007 25/23 A2991 RMK AO2
KTPF 180955Z AUTO 22009KT 10SM SCT009 BKN029 OVC035 25/23 A2989 RMK AO2
KTPF 180935Z AUTO 23007KT 10SM BKN027 OVC036 24/23 A2990 RMK AO2
KTPF 180915Z AUTO 24003KT 10SM BKN025 BKN034 OVC100 24/23 A2990 RMK AO2
KTPF 180855Z AUTO 00000KT 10SM SCT036 OVC100 24/23 A2990 RMK AO2
KTPF 180835Z AUTO 23004KT 10SM SCT036 OVC100 24/23 A2990 RMK AO2
KTPF 180815Z AUTO 24004KT 10SM SCT039 OVC100 24/23 A2989 RMK AO2
KTPF 180755Z AUTO 24005KT 10SM SCT011 SCT037 OVC100 25/23 A2990 RMK AO2
KTPF 180735Z AUTO 23005KT 10SM SCT013 SCT035 OVC100 25/23 A2990 RMK AO2
KTPF 180715Z AUTO 23007KT 10SM BKN100 OVC120 25/23 A2990 RMK AO2
KTPF 180655Z AUTO 23005KT 10SM SCT038 OVC100 24/23 A2991 RMK AO2
KTPF 180635Z AUTO 23005KT 10SM SCT013 SCT035 OVC100 25/23 A2991 RMK AO2
KTPF 180615Z AUTO 24005KT 10SM BKN013 BKN030 OVC100 25/23 A2992 RMK AO2
KTPF 180555Z AUTO 24004KT 10SM SCT013 BKN030 OVC060 25/23 A2992 RMK AO2
KTPF 180535Z AUTO 24004KT 10SM BKN030 BKN060 OVC080 25/23 A2992 RMK AO2
KTPF 180515Z AUTO 24003KT 10SM SCT011 BKN030 OVC100 25/23 A2992 RMK AO2
KTPF 180455Z AUTO 23004KT 10SM SCT013 BKN036 OVC100 25/23 A2992 RMK AO2
KTPF 180435Z AUTO 24003KT 10SM SCT011 BKN028 OVC080 25/23 A2992 RMK AO2
KTPF 180415Z AUTO 00000KT 10SM SCT013 BKN030 OVC085 25/23 A2992 RMK AO2
KTPF 180355Z AUTO 24003KT 10SM SCT013 BKN075 OVC085 25/23 A2992 RMK AO2
KTPF 180335Z AUTO 24003KT 10SM SCT013 BKN031 OVC100 25/23 A2991 RMK AO2
KTPF 180315Z AUTO 23003KT 10SM SCT011 SCT055 OVC100 25/23 A2991 RMK AO2
KTPF 180255Z AUTO 25005KT 10SM SCT011 BKN060 OVC110 25/23 A2990 RMK AO2
KTPF 180235Z AUTO 24006KT 10SM SCT011 BKN060 OVC100 25/23 A2990 RMK AO2
KTPF 180215Z AUTO 24006KT 10SM SCT011 SCT045 OVC100 25/23 A2990 RMK AO2
KTPF 180155Z AUTO 23007KT 10SM SCT011 SCT060 OVC100 25/23 A2989 RMK AO2
KTPF 180135Z AUTO 23005KT 10SM SCT009 SCT039 OVC100 25/23 A2989 RMK AO2
KTPF 180115Z AUTO 23008KT 10SM BKN100 OVC120 25/23 A2988 RMK AO2
KTPF 180055Z AUTO 24006KT 10SM BKN090 OVC120 25/23 A2988 RMK AO2
KTPF 180035Z AUTO 24006KT 10SM BKN100 OVC120 25/23 A2988 RMK AO2
KTPF 180015Z AUTO 23006KT 10SM OVC100 26/22 A2988 RMK AO2
KTPF 172355Z AUTO 24007KT 10SM OVC110 26/22 A2988 RMK AO2
KTPF 172335Z AUTO 25007KT 10SM OVC110 26/22 A2987 RMK AO2
KTPF 172315Z AUTO 24007KT 10SM SCT049 BKN100 OVC120 26/23 A2987 RMK AO2
KTPF 172255Z AUTO 23007KT 10SM SCT025 BKN050 OVC100 27/23 A2986 RMK AO2
KTPF 172235Z AUTO 23008KT 10SM SCT027 BKN055 OVC110 26/23 A2986 RMK AO2
KTPF 172215Z AUTO 23008KT 10SM SCT030 BKN050 OVC095 27/23 A2986 RMK AO2
KTPF 172155Z AUTO 24009KT 10SM SCT026 BKN038 OVC095 27/23 A2986 RMK AO2
KTPF 172135Z AUTO 23010KT 10SM SCT023 BKN039 OVC049 27/23 A2986 RMK AO2
KTPF 172115Z AUTO 23009G14KT 10SM SCT021 SCT028 BKN047 28/23 A2986 RMK AO2
KTPF 172055Z AUTO 26009KT 10SM SCT023 SCT029 BKN038 29/22 A2986 RMK AO2
KTPF 172035Z AUTO 24005KT 10SM OVC025 28/22 A2985 RMK AO2
KTPF 172015Z AUTO 23009KT 10SM BKN026 BKN037 OVC047 29/22 A2986 RMK AO2
KTPF 171955Z AUTO 25006KT 10SM BKN024 BKN031 28/22 A2986 RMK AO2
KTPF 171935Z AUTO 24008KT 10SM BKN022 BKN029 OVC039 28/22 A2986 RMK AO2
KTPF 171915Z AUTO 24008KT 10SM BKN020 BKN024 OVC090 28/23 A2987 RMK AO2
KTPF 171855Z AUTO 22012KT 10SM BKN020 OVC025 28/23 A2988 RMK AO2
KTPF 171835Z AUTO 23008KT 10SM BKN020 BKN032 BKN090 28/23 A2988 RMK AO2
KTPF 171815Z AUTO 23009KT 10SM SCT020 SCT032 BKN049 27/23 A2989 RMK AO2
KTPF 171755Z AUTO 22013KT 10SM BKN022 BKN034 BKN049 27/23 A2990 RMK AO2
KTPF 171735Z AUTO 23011G15KT 10SM BKN022 BKN030 BKN036 28/23 A2990 RMK AO2
KTPF 171715Z AUTO 23010KT 10SM SCT024 BKN031 BKN036 27/22 A2990 RMK AO2
KTPF 171655Z AUTO 24010KT 10SM SCT025 SCT029 SCT034 29/22 A2991 RMK AO2
KTPF 171635Z AUTO 25006KT 10SM SCT023 BKN029 BKN070 28/22 A2991 RMK AO2
KTPF 171615Z AUTO 27008KT 10SM BKN023 BKN031 OVC070 28/22 A2992 RMK AO2
KTPF 171555Z AUTO 24007KT 10SM OVC021 27/22 A2993 RMK AO2
KTPF 171535Z AUTO 26005KT 10SM BKN021 BKN027 BKN039 27/22 A2993 RMK AO2
KTPF 171515Z AUTO 27007KT 10SM BKN014 BKN023 OVC031 27/23 A2993 RMK AO2
KTPF 171455Z AUTO 26003KT 10SM OVC014 26/23 A2993 RMK AO2
KTPF 171435Z AUTO 24007KT 10SM OVC012 25/23 A2992 RMK AO2
KTPF 171415Z AUTO 23004KT 10SM OVC010 25/23 A2991 RMK AO2
KTPF 171355Z AUTO 24006KT 10SM OVC010 25/23 A2991 RMK AO2
KTPF 171335Z AUTO 24005G08KT 10SM BKN010 BKN015 25/23 A2990 RMK AO2
KTPF 171315Z AUTO 22009KT 10SM BKN010 BKN014 25/23 A2989 RMK AO2
KTPF 171255Z AUTO 24007KT 10SM OVC013 25/23 A2990 RMK AO2
KTPF 171235Z AUTO 23009KT 10SM OVC013 25/23 A2990 RMK AO2
KTPF 171215Z AUTO 23007KT 10SM BKN011 OVC015 24/22 A2990 RMK AO2
KTPF 171155Z AUTO 24006KT 7SM SCT009 OVC015 24/22 A2988 RMK AO2
KTPF 171135Z AUTO 23007G14KT 7SM BKN009 OVC015 24/22 A2987 RMK AO2
KTPF 171115Z AUTO 24008KT 10SM BKN009 24/22 A2987 RMK AO2
KTPF 171055Z AUTO 24009G14KT 7SM SCT009 SCT013 24/22 A2985 RMK AO2
KTPF 171035Z AUTO 24007KT 7SM BKN011 23/22 A2985 RMK AO2
KTPF 171015Z AUTO 24008KT 7SM BKN011 23/22 A2985 RMK AO2
KTPF 170955Z AUTO 23006KT 7SM CLR 23/22 A2985 RMK AO2
KTPF 170935Z AUTO 23010G14KT 7SM SCT009 SCT012 23/22 A2984 RMK AO2